Flight Track Log - Related Links

Times and Time Zones

All times are in EDT time to prevent confusion due to time zone crossing. See the PDT4140 flight status page for this flight to view local times or setup timezone preferences in your user account.

Time Position Orientation Groundspeed Altitude Reporting Facility
EDT Latitude Longitude Course Direction KTS MPH feet Rate Location/Type
Thu 02:38:00 PM 41.0521 -75.5855 163° South  Level FlightAware Approximate
Thu 02:39:00 PM 40.9572 -75.5462 163° South  Level FlightAware Approximate
Thu 02:40:00 PM 40.8621 -75.5081 163° South  Level FlightAware Approximate
Thu 02:41:00 PM 40.7669 -75.4700 163° South  Level FlightAware Approximate
Thu 02:42:00 PM 40.6705 -75.4607 190° South  Level FlightAware Approximate
Thu 02:43:00 PM 40.5726 -75.4833 190° South  Level FlightAware Approximate
Thu 02:44:00 PM 40.4745 -75.5043 187° South  Level FlightAware Approximate
Thu 02:45:00 PM 40.3759 -75.5211 188° South  Level FlightAware Approximate
Thu 02:46:00 PM 40.2775 -75.5390 188° South  Level FlightAware Approximate
Thu 02:47:00 PM 40.1865 -75.5198 143° Southeast  Level FlightAware Approximate
Thu 02:48:00 PM 40.1075 -75.4408 143° Southeast  Level FlightAware Approximate
Thu 02:49:00 PM 40.0236 -75.3736 143° Southeast  Level FlightAware Approximate
Thu 02:50:00 PM 39.9456 -75.3061 159° South  Level FlightAware Approximate
Thu 02:51:00 PM 39.8697 -75.2356 150° Southeast  Level FlightAware Approximate
Thu 02:51:08 PM 40.5833 -75.3500 150° Southeast 238 274 5,100  Level Philadelphia TRACON
Thu 02:51:32 PM 40.5667 -75.3667 217° Southwest 227 261 5,100  Level Philadelphia TRACON
Thu 02:52:00 PM 39.8667 -75.2333 150° Southeast  Level FlightAware Approximate
Thu 02:52:32 PM 40.5500 -75.4333 252° West 213 245 5,100  Level Philadelphia TRACON
Thu 02:53:00 PM 39.8722 -75.2409 150° Southeast  Level Estimated
Thu 02:53:33 PM 40.5167 -75.5000 237° Southwest 211 243 5,000  Level Philadelphia TRACON
Thu 02:54:00 PM 39.8722 -75.2409 150° Southeast  Level Estimated
Thu 02:54:33 PM 40.4500 -75.5333 201° Southwest 217 250 5,000  Level Philadelphia TRACON
Thu 02:55:00 PM 39.8722 -75.2409 150° Southeast  Level Estimated
Thu 02:55:33 PM 40.4000 -75.5333 180° South 215 247 5,000  Level Philadelphia TRACON
Thu 02:56:00 PM 39.8722 -75.2409 150° Southeast  Level Estimated
Thu 02:56:33 PM 40.3333 -75.5333 180° South 215 247 5,000  Level Philadelphia TRACON
Thu 02:57:33 PM 40.2833 -75.5333 180° South 216 249 5,000  Level Philadelphia TRACON
Thu 02:58:33 PM 40.2333 -75.4833 143° Southeast 219 252 5,000 -150 Level Philadelphia TRACON
Thu 02:59:33 PM 40.1833 -75.4333 143° Southeast 222 255 4,700 -500 Descending Philadelphia TRACON
Thu 03:00:33 PM 40.1333 -75.3833 143° Southeast 244 281 4,000 -350 Descending Philadelphia TRACON
Thu 03:01:33 PM 40.1000 -75.3167 123° Southeast 221 254 4,000  Level Philadelphia TRACON
Thu 03:02:33 PM 40.0667 -75.2500 123° Southeast 217 250 4,000  Level Philadelphia TRACON
Thu 03:03:33 PM 40.0167 -75.2167 153° Southeast 216 249 4,000 50 Level Philadelphia TRACON
Thu 03:04:33 PM 39.9667 -75.1833 153° Southeast 214 246 4,100 -100 Climbing Philadelphia TRACON
Thu 03:05:33 PM 39.9000 -75.1500 159° South 209 241 3,800 -667 Descending Philadelphia TRACON
Thu 03:06:39 PM 39.8500 -75.1333 166° South 206 237 2,700 -857 Descending Philadelphia TRACON
Thu 03:07:39 PM 39.7833 -75.1333 180° South 196 226 2,000 -350 Descending Philadelphia TRACON
Thu 03:08:39 PM 39.8000 -75.1833 293° West 158 182 2,000  Level Philadelphia TRACON

Login

Don't have an account? Register now (free) for customized features, flight alerts, and more!